Terminal Aerodrome Forecast
Issued by NWS

Home | Current Version | Previous Version | Text Only | Print | Product List | Glossary On
Versions: 1 2 3 4 5 6 7 8 9 10 11 12 13 14 15 16 17 18 19 20 21 22 23 24 25 26 27 28 29 30
000
FTUS43 KABR 260204 AAB
TAFATY
TAF AMD
KATY 260204Z 2602/2624 03009KT P6SM SCT250
     FM260600 VRB04KT P6SM SCT250
      TEMPO 2608/2612 4SM BR
     FM261700 02008KT 5SM BR BKN250=

USA.gov is the U.S. government's official web portal to all federal, state and local government web resources and services.